NY16 weather

Oak Ridge Airport
East Palmyra, New York, United States

Public forecast

Using degrees Fahrenheit for public forecast. Weather courtesy of forecast.io.

Closest aviation weather report (METAR) to Oak Ridge Airport

Closest report is Greater Rochester International Airport, 21.5 nm (39.9 km) W. Retrieved 2019/12/06 15:04 UTC (16 minutes ago):

KROC 061504Z 00000KT 3/4SM R04/3500V4500FT -SN BR OVC013 00/M01 A2988 RMK AO2 P0001 T00001011

Closest aviation forecast (TAF) to Oak Ridge Airport

Closest forecast is Greater Rochester International Airport, 21.5 nm (39.9 km) W. Retrieved 2019/12/06 12:22 UTC (3 hours ago):

TAF KROC 061120Z 0612/0712 17006KT 6SM -SN OVC050 FM061300 22008KT 1 1/2SM -SN OVC025 FM061700 32010KT 4SM -SHSN OVC007 FM062000 32012KT P6SM VCSH BKN012 FM070300 28010KT P6SM VCSH BKN025